Time;durP1;ratioP1;P1;durP2;ratioP2;P2;SDS_P1;SDS_P2;PMS_P1;PMS_P2;Temp;Humidity;BMP_temperature;BMP_pressure;BME280_temperature;BME280_humidity;BME280_pressure;Samples;Min_cycle;Max_cycle;Signal;HPM_P1;HPM_P2
2022/09/23 00:00:41;;;;;;;4.17;2.60;;;;;;;10.60;67.64;99701.94;4960165;28;20443;-75
2022/09/23 00:03:07;;;;;;;5.22;2.90;;;;;;;10.57;67.85;99699.50;4963732;28;20187;-75
2022/09/23 00:05:33;;;;;;;4.13;1.90;;;;;;;10.56;67.78;99694.34;4962095;28;20201;-75
2022/09/23 00:07:59;;;;;;;3.07;2.87;;;;;;;10.56;67.94;99699.63;4963727;28;20213;-75
2022/09/23 00:10:27;;;;;;;2.45;2.25;;;;;;;10.56;67.71;99691.72;4961535;28;20519;-75
2022/09/23 00:12:54;;;;;;;3.92;2.92;;;;;;;10.55;67.97;99697.91;4962925;28;20199;-75
2022/09/23 00:15:19;;;;;;;3.15;2.80;;;;;;;10.52;67.98;99695.47;4963035;28;20743;-75
2022/09/23 00:17:46;;;;;;;3.90;2.80;;;;;;;10.48;67.94;99689.56;4963754;28;20219;-75
2022/09/23 00:20:12;;;;;;;2.47;2.22;;;;;;;10.45;68.02;99695.03;4962597;28;20218;-75
2022/09/23 00:22:38;;;;;;;3.38;2.50;;;;;;;10.39;68.36;99701.47;4964155;28;20189;-75
2022/09/23 00:25:05;;;;;;;3.00;2.60;;;;;;;10.34;68.35;99700.06;4962027;28;21012;-75
2022/09/23 00:27:30;;;;;;;4.80;2.53;;;;;;;10.25;68.48;99698.81;4961479;28;20216;-75
2022/09/23 00:29:56;;;;;;;2.67;2.37;;;;;;;10.20;68.41;99698.25;4961541;28;20193;-74
2022/09/23 00:32:21;;;;;;;3.50;2.87;;;;;;;10.15;68.69;99695.06;4960866;28;20535;-75
2022/09/23 00:34:47;;;;;;;5.10;3.27;;;;;;;10.14;68.70;99690.75;4962571;28;20655;-75
2022/09/23 00:37:13;;;;;;;5.10;3.23;;;;;;;10.10;68.74;99689.25;4961275;28;20199;-75
2022/09/23 00:39:39;;;;;;;7.63;3.10;;;;;;;10.02;68.74;99689.72;4964021;28;20211;-75
2022/09/23 00:42:06;;;;;;;3.03;2.77;;;;;;;9.99;68.81;99684.66;4962584;28;20204;-75
2022/09/23 00:44:38;;;;;;;6.15;2.88;;;;;;;9.97;68.89;99687.38;4963083;28;20184;-75
2022/09/23 00:47:04;;;;;;;6.07;2.78;;;;;;;9.97;68.70;99690.00;4962647;28;20193;-76
2022/09/23 00:49:29;;;;;;;3.70;3.17;;;;;;;9.94;68.94;99687.56;4963285;28;20196;-75
2022/09/23 00:52:05;;;;;;;3.60;3.00;;;;;;;9.92;68.90;99680.72;4961541;28;20185;-75
2022/09/23 00:54:31;;;;;;;3.15;2.83;;;;;;;9.88;69.04;99680.06;4962266;28;20595;-75
2022/09/23 00:56:59;;;;;;;5.07;4.20;;;;;;;9.87;68.85;99677.50;4960166;28;20180;-74
2022/09/23 00:59:27;;;;;;;3.78;3.25;;;;;;;9.87;69.13;99677.50;4961527;28;20616;-75
2022/09/23 01:01:56;;;;;;;5.65;3.65;;;;;;;9.88;69.22;99666.94;4959157;28;20184;-74
2022/09/23 01:04:24;;;;;;;4.65;3.85;;;;;;;9.89;69.05;99673.88;4962512;28;20618;-75
2022/09/23 01:06:50;;;;;;;4.65;3.45;;;;;;;9.88;69.25;99673.94;4960741;28;20177;-75
2022/09/23 01:09:16;;;;;;;4.07;3.00;;;;;;;9.86;69.18;99671.44;4960574;28;20707;-75
2022/09/23 01:12:02;;;;;;;3.78;3.35;;;;;;;9.85;69.00;99677.59;4960000;28;20184;-75
2022/09/23 01:14:47;;;;;;;8.55;3.78;;;;;;;9.87;69.05;99674.88;4962049;28;20196;-75
2022/09/23 01:17:26;;;;;;;4.38;3.33;;;;;;;9.86;69.17;99671.44;4962204;28;20654;-75
2022/09/23 01:20:16;;;;;;;4.68;3.60;;;;;;;9.87;69.06;99664.41;4959669;28;20196;-75
2022/09/23 01:23:09;;;;;;;2.60;2.28;;;;;;;9.86;69.20;99665.34;4960652;28;20212;-75
2022/09/23 01:25:50;;;;;;;5.22;3.83;;;;;;;9.84;69.05;99670.66;4962016;28;20780;-75
2022/09/23 01:28:50;;;;;;;4.47;3.95;;;;;;;9.81;69.30;99668.22;4960120;28;20213;-74
2022/09/23 01:31:28;;;;;;;3.83;3.50;;;;;;;9.79;69.24;99675.34;4960801;28;20203;-75
2022/09/23 01:34:10;;;;;;;5.70;2.55;;;;;;;9.78;69.34;99667.59;4960056;28;20192;-75
2022/09/23 01:36:42;;;;;;;4.20;2.97;;;;;;;9.77;69.38;99665.88;4961461;28;20542;-74
2022/09/23 01:39:16;;;;;;;5.13;2.95;;;;;;;9.75;69.28;99671.22;4960594;28;20216;-74
2022/09/23 01:42:01;;;;;;;2.95;2.65;;;;;;;9.76;69.31;99667.66;4959698;28;20188;-75
2022/09/23 01:44:33;;;;;;;3.05;2.65;;;;;;;9.77;69.26;99671.13;4961846;28;20195;-75
2022/09/23 01:47:09;;;;;;;4.07;2.75;;;;;;;9.77;69.39;99665.88;4959918;28;20660;-74
2022/09/23 01:49:52;;;;;;;4.35;3.20;;;;;;;9.74;69.29;99666.91;4959238;28;20212;-74
2022/09/23 01:52:23;;;;;;;3.63;3.03;;;;;;;9.72;69.34;99663.50;4959312;28;20220;-74
2022/09/23 01:55:08;;;;;;;3.60;3.00;;;;;;;9.70;69.16;99662.78;4958663;28;20522;-75
2022/09/23 01:57:44;;;;;;;4.82;3.60;;;;;;;9.63;69.43;99661.44;4958568;28;20212;-76
2022/09/23 02:00:16;;;;;;;5.65;2.70;;;;;;;9.55;69.51;99655.81;4955584;28;20192;-74
2022/09/23 02:02:53;;;;;;;4.25;3.67;;;;;;;9.43;69.56;99652.97;4958904;28;20191;-75
2022/09/23 02:05:31;;;;;;;2.90;2.70;;;;;;;9.34;69.90;99663.97;4960153;28;20250;-74
2022/09/23 02:08:10;;;;;;;3.60;2.97;;;;;;;9.26;70.11;99666.19;4959687;28;20219;-74
2022/09/23 02:10:48;;;;;;;3.50;2.92;;;;;;;9.22;70.26;99664.69;4957635;28;20185;-74
2022/09/23 02:13:23;;;;;;;2.85;2.65;;;;;;;9.24;70.21;99668.06;4959160;28;20191;-74
2022/09/23 02:15:58;;;;;;;2.30;2.10;;;;;;;9.24;70.14;99670.69;4959494;28;20180;-74
2022/09/23 02:18:27;;;;;;;3.53;3.22;;;;;;;9.24;70.11;99671.53;4961590;28;20215;-74
2022/09/23 02:20:59;;;;;;;3.83;2.70;;;;;;;9.25;70.01;99662.72;4959481;28;20192;-74
2022/09/23 02:23:31;;;;;;;4.95;3.22;;;;;;;9.26;69.97;99666.19;4957063;28;20681;-74
2022/09/23 02:26:07;;;;;;;3.03;2.72;;;;;;;9.26;69.97;99667.06;4959461;28;20192;-75
2022/09/23 02:29:01;;;;;;;3.67;2.42;;;;;;;9.25;69.96;99677.63;4960725;28;20216;-75
2022/09/23 02:31:37;;;;;;;3.95;3.15;;;;;;;9.24;69.90;99671.53;4952493;28;20650;-76
2022/09/23 02:34:33;;;;;;;3.50;2.80;;;;;;;9.25;69.97;99675.00;4960536;28;20208;-74
2022/09/23 02:37:14;;;;;;;3.42;3.13;;;;;;;9.24;70.21;99673.31;4959419;28;20263;-75
2022/09/23 02:39:58;;;;;;;3.00;2.40;;;;;;;9.19;70.00;99673.56;4959317;28;20424;-74
2022/09/23 02:42:35;;;;;;;3.20;2.90;;;;;;;9.15;70.29;99671.22;4959648;28;20190;-75
2022/09/23 02:45:01;;;;;;;4.25;3.80;;;;;;;9.08;70.48;99666.31;4960713;28;20251;-74
2022/09/23 02:47:30;;;;;;;4.63;4.10;;;;;;;8.98;70.74;99657.28;4959584;28;20212;-75
2022/09/23 02:49:55;;;;;;;4.57;4.18;;;;;;;8.90;70.79;99669.13;4955286;28;20185;-74
2022/09/23 02:52:21;;;;;;;4.10;3.70;;;;;;;8.82;71.16;99661.69;4960468;28;20194;-74
2022/09/23 02:54:46;;;;;;;4.03;3.10;;;;;;;8.80;71.23;99651.31;4959519;28;20185;-76
2022/09/23 02:57:13;;;;;;;3.60;3.10;;;;;;;8.77;71.20;99653.25;4960158;28;20608;-77
2022/09/23 02:59:39;;;;;;;3.70;3.30;;;;;;;8.72;71.23;99657.88;4958340;28;20195;-76
2022/09/23 03:02:37;;;;;;;3.08;2.78;;;;;;;8.66;71.37;99658.22;4960217;28;20206;-74
2022/09/23 03:05:26;;;;;;;7.10;3.65;;;;;;;8.61;71.43;99651.50;4961548;28;20199;-76
2022/09/23 03:08:11;;;;;;;3.78;3.42;;;;;;;8.58;71.55;99643.78;4960774;28;20692;-77
2022/09/23 03:11:10;;;;;;;7.57;3.88;;;;;;;8.60;71.59;99646.31;4957745;28;20199;-76
2022/09/23 03:13:41;;;;;;;3.90;3.05;;;;;;;8.61;71.51;99648.88;4959501;28;20196;-76
2022/09/23 03:16:26;;;;;;;5.70;4.00;;;;;;;8.66;71.45;99648.59;4957393;28;20665;-77
2022/09/23 03:19:04;;;;;;;10.80;5.47;;;;;;;8.70;71.22;99655.38;4958621;28;20212;-75
2022/09/23 03:21:37;;;;;;;3.88;3.15;;;;;;;8.73;71.19;99646.50;4917675;28;20221;-75
2022/09/23 03:24:07;;;;;;;4.43;3.40;;;;;;;8.77;71.12;99643.59;4910290;29;20198;-75
2022/09/23 03:26:35;;;;;;;4.10;3.70;;;;;;;8.83;70.99;99650.28;4909532;29;20281;-76
2022/09/23 03:29:04;;;;;;;3.63;3.25;;;;;;;8.86;70.90;99644.88;4906385;29;20253;-75
2022/09/23 03:31:32;;;;;;;3.13;2.35;;;;;;;8.83;70.72;99647.66;4909829;29;20734;-74
2022/09/23 03:34:01;;;;;;;3.03;2.83;;;;;;;8.70;70.89;99641.44;4910850;29;20195;-77
2022/09/23 03:36:50;;;;;;;3.10;2.75;;;;;;;8.60;71.04;99652.41;4908253;29;20213;-75
2022/09/23 03:39:43;;;;;;;3.03;2.10;;;;;;;8.48;71.18;99647.84;4905458;29;20594;-77
2022/09/23 03:42:20;;;;;;;2.90;2.70;;;;;;;8.40;71.41;99656.13;4909629;29;20206;-75
2022/09/23 03:44:47;;;;;;;4.22;2.80;;;;;;;8.37;71.45;99655.38;4911905;29;20190;-75
2022/09/23 03:47:15;;;;;;;2.50;2.30;;;;;;;8.36;71.59;99649.31;4908203;29;20564;-75
2022/09/23 03:49:44;;;;;;;3.17;2.88;;;;;;;8.37;71.39;99651.00;4909311;29;20190;-76
2022/09/23 03:52:10;;;;;;;4.15;2.67;;;;;;;8.43;71.21;99652.47;4908938;29;20209;-76
2022/09/23 03:54:35;;;;;;;3.47;2.70;;;;;;;8.47;71.11;99640.91;4907080;29;20818;-76
2022/09/23 03:57:01;;;;;;;3.07;2.77;;;;;;;8.49;71.00;99638.22;4695995;28;5001767;-75
2022/09/23 03:59:29;;;;;;;4.32;2.50;;;;;;;8.51;70.88;99639.81;4917673;28;20469;-75
2022/09/23 04:01:54;;;;;;;3.17;2.88;;;;;;;8.51;70.83;99638.97;4921974;29;20198;-76
2022/09/23 04:04:20;;;;;;;4.63;3.63;;;;;;;8.49;70.95;99639.06;4920845;29;20190;-75
2022/09/23 04:06:45;;;;;;;4.20;3.33;;;;;;;8.47;71.11;99633.06;4924576;29;20193;-75
2022/09/23 04:09:11;;;;;;;6.50;2.63;;;;;;;8.47;71.07;99637.44;4921967;29;20233;-76
2022/09/23 04:11:36;;;;;;;4.50;3.77;;;;;;;8.47;71.20;99640.91;4914155;29;20551;-74
2022/09/23 04:14:02;;;;;;;3.33;3.03;;;;;;;8.49;71.17;99633.81;4923523;29;20189;-75
2022/09/23 04:16:27;;;;;;;4.17;3.77;;;;;;;8.52;71.09;99633.66;4924464;29;20307;-75
2022/09/23 04:18:53;;;;;;;3.37;3.00;;;;;;;8.57;71.12;99639.47;4923554;29;20211;-76
2022/09/23 04:21:18;;;;;;;3.80;3.10;;;;;;;8.62;71.15;99644.47;4922690;29;20646;-75
2022/09/23 04:23:45;;;;;;;3.60;3.27;;;;;;;8.63;70.89;99635.69;4923931;29;20598;-77
2022/09/23 04:26:11;;;;;;;5.70;3.72;;;;;;;8.66;71.09;99640.75;4925411;29;20189;-77
2022/09/23 04:28:37;;;;;;;3.13;2.60;;;;;;;8.71;71.03;99638.72;4924205;29;21055;-75
2022/09/23 04:31:06;;;;;;;3.57;3.30;;;;;;;8.75;70.94;99634.13;4924275;29;20204;-75
2022/09/23 04:33:32;;;;;;;5.55;4.00;;;;;;;8.82;70.86;99635.50;4923498;29;20201;-75
2022/09/23 04:35:57;;;;;;;4.87;4.47;;;;;;;8.88;70.78;99634.31;4922373;29;20194;-75
2022/09/23 04:38:23;;;;;;;6.00;5.50;;;;;;;8.91;70.70;99636.75;4923715;29;20484;-76
2022/09/23 04:40:51;;;;;;;9.77;8.87;;;;;;;8.92;70.48;99636.69;4922349;29;20194;-76
2022/09/23 04:43:17;;;;;;;7.60;6.80;;;;;;;8.95;70.62;99635.66;4922372;29;20238;-75
2022/09/23 04:45:43;;;;;;;7.40;6.67;;;;;;;8.98;70.68;99638.94;4922327;29;20249;-76
2022/09/23 04:48:10;;;;;;;9.65;8.82;;;;;;;9.03;70.61;99638.69;4922154;29;20202;-75
2022/09/23 04:50:36;;;;;;;7.50;6.72;;;;;;;9.08;70.48;99641.91;4920537;29;20264;-75
2022/09/23 04:53:03;;;;;;;8.13;7.47;;;;;;;9.12;70.40;99638.16;4921368;29;20512;-75
2022/09/23 04:55:29;;;;;;;7.55;6.85;;;;;;;9.15;70.48;99639.75;4923755;29;20260;-75
2022/09/23 04:57:54;;;;;;;8.83;6.27;;;;;;;9.14;70.43;99640.69;4923284;29;20220;-76
2022/09/23 05:00:22;;;;;;;7.43;5.10;;;;;;;9.09;70.64;99646.19;4923537;29;20449;-76
2022/09/23 05:02:49;;;;;;;7.07;5.15;;;;;;;8.99;70.67;99655.50;4921441;29;20319;-75
2022/09/23 05:05:19;;;;;;;5.97;3.88;;;;;;;8.90;70.96;99654.25;4922738;29;20194;-75
2022/09/23 05:07:44;;;;;;;7.05;5.40;;;;;;;8.83;71.01;99650.28;4920370;29;20293;-76
2022/09/23 05:10:10;;;;;;;5.23;4.67;;;;;;;8.82;71.23;99656.44;4921728;29;20190;-76
2022/09/23 05:12:35;;;;;;;6.23;5.63;;;;;;;8.80;71.38;99655.69;4922386;29;20189;-76
2022/09/23 05:15:01;;;;;;;6.70;5.97;;;;;;;8.79;71.75;99657.47;4923254;29;20217;-76
2022/09/23 05:17:30;;;;;;;6.70;5.70;;;;;;;8.80;71.73;99648.69;4920362;29;20233;-76
2022/09/23 05:19:56;;;;;;;7.45;5.47;;;;;;;8.86;71.54;99648.34;4923747;29;20218;-76
2022/09/23 05:22:23;;;;;;;14.80;5.95;;;;;;;8.92;71.40;99652.41;4921920;29;20265;-76
2022/09/23 05:24:48;;;;;;;7.40;4.75;;;;;;;8.94;71.21;99653.16;4923203;29;20182;-76
2022/09/23 05:27:13;;;;;;;5.63;4.37;;;;;;;8.95;71.45;99648.75;4917144;29;20331;-76
2022/09/23 05:29:39;;;;;;;6.97;4.47;;;;;;;8.98;71.44;99649.41;4916349;29;20197;-76
2022/09/23 05:32:05;;;;;;;4.25;3.25;;;;;;;9.05;71.26;99650.78;4914503;29;20186;-76
2022/09/23 05:34:31;;;;;;;4.60;4.20;;;;;;;9.13;71.10;99657.34;4915662;29;20186;-76
2022/09/23 05:36:57;;;;;;;7.40;5.20;;;;;;;9.20;71.09;99651.66;4917518;29;20225;-76
2022/09/23 05:39:22;;;;;;;6.05;3.72;;;;;;;9.24;70.84;99640.09;4917828;29;20284;-76
2022/09/23 05:41:47;;;;;;;5.60;4.90;;;;;;;9.30;70.84;99644.13;4914381;29;20186;-76
2022/09/23 05:44:13;;;;;;;6.77;3.73;;;;;;;9.38;70.57;99644.53;4914876;29;20186;-76
2022/09/23 05:46:38;;;;;;;7.93;4.57;;;;;;;9.45;70.36;99645.00;4914224;29;20182;-76
2022/09/23 05:49:04;;;;;;;4.47;4.07;;;;;;;9.50;70.26;99643.81;4915371;29;20202;-76
2022/09/23 05:51:31;;;;;;;7.22;3.92;;;;;;;9.53;70.13;99648.88;4912954;29;20216;-76
2022/09/23 05:53:58;;;;;;;5.60;4.47;;;;;;;9.55;70.11;99650.56;4914601;29;20676;-74
2022/09/23 05:56:26;;;;;;;9.18;6.13;;;;;;;9.56;70.12;99652.25;4915552;29;20269;-75
2022/09/23 05:58:53;;;;;;;5.72;4.13;;;;;;;9.57;70.06;99646.91;4914723;29;20222;-75
2022/09/23 06:01:21;;;;;;;4.75;4.38;;;;;;;9.57;70.06;99646.91;4915146;29;20657;-75
2022/09/23 06:03:47;;;;;;;6.90;3.90;;;;;;;9.59;69.89;99641.59;4916797;29;20204;-75
2022/09/23 06:06:16;;;;;;;6.50;3.72;;;;;;;9.62;69.99;99644.03;4914218;29;20926;-75
2022/09/23 06:08:43;;;;;;;11.63;4.95;;;;;;;9.64;69.77;99640.38;4915579;29;20202;-75
2022/09/23 06:11:08;;;;;;;4.25;3.85;;;;;;;9.69;69.77;99634.84;4915612;29;20265;-75
2022/09/23 06:13:36;;;;;;;7.60;3.97;;;;;;;9.73;69.71;99647.69;4913543;29;20190;-76
2022/09/23 06:16:07;;;;;;;4.53;4.13;;;;;;;9.77;69.71;99637.84;4914493;29;20456;-75
2022/09/23 06:18:37;;;;;;;7.75;4.40;;;;;;;9.82;69.51;99641.06;4915823;29;20374;-75
2022/09/23 06:21:04;;;;;;;13.45;6.63;;;;;;;9.88;69.29;99638.09;4914817;29;20189;-76
2022/09/23 06:23:30;;;;;;;11.32;10.38;;;;;;;9.95;69.18;99630.66;4916566;29;20695;-75
2022/09/23 06:26:03;;;;;;;14.30;11.38;;;;;;;10.04;68.81;99626.63;4917086;29;20717;-76
2022/09/23 06:28:34;;;;;;;16.08;10.95;;;;;;;10.14;68.65;99633.00;4916600;29;20226;-75
2022/09/23 06:31:04;;;;;;;11.68;10.23;;;;;;;10.26;68.51;99628.78;4914227;29;20194;-76
2022/09/23 06:33:33;;;;;;;9.18;7.30;;;;;;;10.34;68.38;99627.41;4917013;29;20194;-76
2022/09/23 06:36:01;;;;;;;8.50;6.60;;;;;;;10.45;68.10;99631.13;4915305;29;20666;-75
2022/09/23 06:38:27;;;;;;;10.45;8.25;;;;;;;10.53;67.87;99631.50;4914375;29;20209;-76
2022/09/23 06:40:55;;;;;;;12.13;7.10;;;;;;;10.59;67.95;99634.59;4916242;29;20635;-75
2022/09/23 06:43:25;;;;;;;10.48;8.30;;;;;;;10.66;67.64;99627.16;4917482;29;20908;-76
2022/09/23 06:45:52;;;;;;;10.65;8.80;;;;;;;10.76;67.67;99627.41;4916244;29;20181;-76
2022/09/23 06:48:19;;;;;;;13.35;8.40;;;;;;;10.84;67.36;99627.78;4914203;29;20213;-75
2022/09/23 06:50:44;;;;;;;8.50;6.20;;;;;;;10.92;67.77;99624.66;4916574;29;20689;-76
2022/09/23 06:53:09;;;;;;;6.27;5.37;;;;;;;11.02;67.58;99636.25;4914601;29;20225;-75
2022/09/23 06:55:35;;;;;;;7.63;4.97;;;;;;;11.12;67.28;99632.06;4918510;29;20362;-76
2022/09/23 06:58:00;;;;;;;5.77;4.03;;;;;;;11.24;67.20;99631.28;4912047;29;20228;-76
2022/09/23 07:00:26;;;;;;;6.23;4.90;;;;;;;11.39;66.92;99631.19;4916000;29;20204;-75
2022/09/23 07:02:53;;;;;;;5.57;4.40;;;;;;;11.53;66.69;99631.13;4913113;29;20289;-75
2022/09/23 07:05:21;;;;;;;5.53;4.95;;;;;;;11.68;66.24;99635.34;4915767;29;20444;-76
2022/09/23 07:07:47;;;;;;;5.07;4.60;;;;;;;11.82;66.05;99636.19;4916622;29;20285;-76
2022/09/23 07:10:13;;;;;;;5.22;4.53;;;;;;;11.95;65.63;99635.28;4917757;29;20186;-76
2022/09/23 07:12:39;;;;;;;5.50;4.47;;;;;;;12.10;65.59;99638.66;4918445;29;20185;-76
2022/09/23 07:15:05;;;;;;;9.13;6.20;;;;;;;12.22;65.16;99642.22;4915543;29;20189;-76
2022/09/23 07:17:31;;;;;;;6.47;5.40;;;;;;;12.30;65.20;99639.88;4919018;29;20257;-76
2022/09/23 07:19:57;;;;;;;8.80;5.00;;;;;;;12.41;65.17;99644.38;4922774;28;20881;-75
2022/09/23 07:22:24;;;;;;;4.90;4.45;;;;;;;12.53;65.17;99646.16;4954949;28;20723;-75
2022/09/23 07:24:56;;;;;;;9.02;4.82;;;;;;;12.66;64.98;99642.63;4956961;28;20719;-76
2022/09/23 07:27:24;;;;;;;7.50;5.57;;;;;;;12.82;64.62;99638.78;4957078;28;20211;-76
2022/09/23 07:29:50;;;;;;;5.38;4.88;;;;;;;12.94;64.32;99644.97;4950709;28;20209;-76
2022/09/23 07:32:16;;;;;;;5.80;5.30;;;;;;;13.05;63.99;99647.66;4951553;28;20185;-76
2022/09/23 07:34:43;;;;;;;7.43;6.13;;;;;;;13.15;63.76;99646.97;4949647;28;20235;-76
2022/09/23 07:37:09;;;;;;;5.00;4.43;;;;;;;13.23;63.38;99648.13;4948757;28;20208;-76
2022/09/23 07:39:35;;;;;;;4.85;4.32;;;;;;;13.28;63.04;99645.16;4954573;28;20200;-76
2022/09/23 07:42:04;;;;;;;4.38;3.97;;;;;;;13.28;62.93;99647.78;4957458;28;20315;-75
2022/09/23 07:44:30;;;;;;;4.82;4.43;;;;;;;13.33;62.89;99648.28;4957378;28;20179;-76
2022/09/23 07:46:57;;;;;;;7.25;4.45;;;;;;;13.53;62.56;99648.59;4952802;28;20188;-76
2022/09/23 07:49:23;;;;;;;5.10;4.70;;;;;;;14.00;61.28;99652.91;4957074;28;21244;-76
2022/09/23 07:51:49;;;;;;;7.53;4.70;;;;;;;14.51;59.56;99647.16;4960697;28;20196;-76
2022/09/23 07:54:17;;;;;;;5.43;4.97;;;;;;;15.02;58.21;99645.75;4954971;28;21104;-76
2022/09/23 07:56:42;;;;;;;5.28;4.78;;;;;;;15.45;56.86;99647.53;4957936;28;20204;-76
2022/09/23 07:59:13;;;;;;;4.27;3.70;;;;;;;16.01;55.44;99655.13;4956629;28;20222;-76
2022/09/23 08:01:41;;;;;;;4.18;3.78;;;;;;;16.59;53.08;99643.97;4954942;28;20663;-76
2022/09/23 08:04:17;;;;;;;4.97;4.45;;;;;;;17.15;52.16;99647.88;4955618;28;20185;-76
2022/09/23 08:06:45;;;;;;;4.28;3.70;;;;;;;17.71;50.80;99641.81;4954358;28;20184;-76
2022/09/23 08:09:11;;;;;;;4.88;4.03;;;;;;;18.08;49.15;99646.38;4956998;28;20219;-76
2022/09/23 08:11:40;;;;;;;10.23;4.63;;;;;;;18.37;48.09;99640.13;4954829;28;20209;-76
2022/09/23 08:14:08;;;;;;;4.50;3.80;;;;;;;18.57;47.68;99637.19;4954803;28;20184;-76
2022/09/23 08:16:38;;;;;;;4.90;4.40;;;;;;;18.61;47.24;99634.25;4957277;28;20768;-76
2022/09/23 08:19:04;;;;;;;4.22;3.92;;;;;;;18.78;46.88;99638.81;4957185;28;20204;-76
2022/09/23 08:21:30;;;;;;;4.47;4.07;;;;;;;19.21;46.03;99627.41;4953793;28;20203;-76
2022/09/23 08:23:55;;;;;;;4.00;3.60;;;;;;;19.84;44.70;99629.09;4956180;28;20200;-75
2022/09/23 08:26:21;;;;;;;4.00;3.70;;;;;;;20.39;43.57;99630.59;4957645;28;20190;-76
2022/09/23 08:28:54;;;;;;;4.90;3.90;;;;;;;20.91;42.35;99625.09;4956110;28;20231;-76
2022/09/23 08:31:22;;;;;;;3.67;3.37;;;;;;;21.31;41.50;99612.81;4953653;28;20295;-75
2022/09/23 08:33:52;;;;;;;20.43;6.70;;;;;;;21.80;40.76;99620.81;4958087;28;20428;-75
2022/09/23 08:36:18;;;;;;;4.10;3.57;;;;;;;22.00;40.12;99615.09;4952408;28;20542;-75
2022/09/23 08:38:43;;;;;;;4.70;3.27;;;;;;;21.96;39.77;99611.09;4956758;28;20947;-75
2022/09/23 08:41:18;;;;;;;5.10;3.57;;;;;;;21.79;39.88;99611.13;4952229;28;20196;-75
2022/09/23 08:43:48;;;;;;;3.80;3.40;;;;;;;21.82;40.16;99610.78;4956422;28;20215;-75
2022/09/23 08:46:23;;;;;;;6.77;3.47;;;;;;;22.03;39.08;99604.03;4953003;28;20583;-75
2022/09/23 08:48:49;;;;;;;5.20;3.93;;;;;;;22.25;38.81;99606.03;4956276;28;20463;-75
2022/09/23 08:51:45;;;;;;;4.53;3.33;;;;;;;22.62;38.22;99601.81;4938043;28;20439;-75
2022/09/23 08:54:11;;;;;;;4.37;2.73;;;;;;;22.97;37.83;99595.09;4955551;28;21003;-75
2022/09/23 08:56:38;;;;;;;5.30;2.87;;;;;;;23.17;37.48;99598.16;4952445;28;20436;-75
2022/09/23 08:59:21;;;;;;;3.37;2.90;;;;;;;23.25;37.16;99602.63;4953344;28;21003;-75
2022/09/23 09:02:01;;;;;;;4.03;2.77;;;;;;;23.22;37.13;99591.41;4936531;28;20531;-75
2022/09/23 09:04:35;;;;;;;3.80;2.60;;;;;;;23.15;36.99;99597.50;4953613;28;20412;-75
2022/09/23 09:07:22;;;;;;;3.70;3.40;;;;;;;23.00;37.32;99596.59;4951064;28;20455;-75
2022/09/23 09:09:56;;;;;;;4.60;4.00;;;;;;;22.87;37.39;99599.84;4935288;28;20450;-75
2022/09/23 09:12:43;;;;;;;5.47;4.20;;;;;;;22.56;37.50;99618.59;4950238;28;21209;-75
2022/09/23 09:15:20;;;;;;;10.43;4.37;;;;;;;22.40;38.11;99592.72;4953633;28;20805;-75
2022/09/23 09:17:51;;;;;;;14.10;4.67;;;;;;;22.28;38.20;99586.13;4951697;28;20427;-76
2022/09/23 09:20:22;;;;;;;3.40;3.10;;;;;;;22.08;38.84;99588.31;4951714;28;21164;-75
2022/09/23 09:22:59;;;;;;;4.07;3.43;;;;;;;21.62;39.59;99585.41;4951371;28;20456;-75
2022/09/23 09:25:44;;;;;;;3.43;3.13;;;;;;;21.28;39.94;99588.22;4950145;28;20435;-75
2022/09/23 09:28:16;;;;;;;5.63;3.10;;;;;;;20.83;41.07;99586.88;4952165;28;21063;-75
2022/09/23 09:30:43;;;;;;;4.30;3.90;;;;;;;20.70;41.43;99590.84;4950843;28;20415;-75
2022/09/23 09:33:17;;;;;;;5.70;3.20;;;;;;;20.65;41.77;99587.00;4955007;28;20440;-75
2022/09/23 09:36:11;;;;;;;7.53;4.33;;;;;;;20.66;41.86;99584.19;4952947;28;20399;-75
2022/09/23 09:38:36;;;;;;;4.90;3.70;;;;;;;20.50;42.10;99582.25;4949012;28;20563;-75
2022/09/23 09:41:14;;;;;;;4.53;4.10;;;;;;;20.49;42.40;99582.41;4948349;28;20531;-75
2022/09/23 09:43:41;;;;;;;4.10;3.80;;;;;;;20.44;42.59;99579.38;4949558;28;20187;-75
2022/09/23 09:46:32;;;;;;;4.37;3.80;;;;;;;20.56;42.71;99575.47;4951294;28;20428;-75
2022/09/23 09:49:07;;;;;;;4.30;3.90;;;;;;;20.67;42.37;99561.00;4954897;28;20534;-75
2022/09/23 09:51:32;;;;;;;4.60;3.60;;;;;;;20.66;42.37;99567.34;4955053;28;20428;-75
2022/09/23 09:54:26;;;;;;;4.70;4.30;;;;;;;20.67;42.62;99556.47;4954040;28;20940;-76
2022/09/23 09:56:52;;;;;;;8.63;4.47;;;;;;;20.71;42.44;99564.97;4951178;28;20243;-75
2022/09/23 09:59:27;;;;;;;4.87;4.47;;;;;;;20.72;42.44;99562.16;4947888;28;20446;-75
2022/09/23 10:02:11;;;;;;;6.20;4.17;;;;;;;20.81;42.48;99568.34;4950372;28;20535;-75
2022/09/23 10:04:37;;;;;;;6.20;4.50;;;;;;;20.96;42.25;99552.53;4950932;28;20483;-75
2022/09/23 10:07:11;;;;;;;16.53;7.33;;;;;;;21.01;42.14;99542.19;4951261;28;20440;-76
2022/09/23 10:09:38;;;;;;;5.47;4.40;;;;;;;21.09;42.35;99541.31;4951077;28;20910;-74
2022/09/23 10:12:17;;;;;;;5.60;4.27;;;;;;;21.15;42.18;99543.34;4951403;28;21505;-76
2022/09/23 10:14:44;;;;;;;4.40;4.10;;;;;;;21.16;42.37;99542.34;4951641;28;20410;-76
2022/09/23 10:17:18;;;;;;;4.30;3.90;;;;;;;21.23;42.40;99542.50;4951371;28;20421;-75
2022/09/23 10:19:47;;;;;;;6.37;5.10;;;;;;;21.35;42.13;99541.97;4951405;28;20485;-75
2022/09/23 10:22:23;;;;;;;7.20;4.70;;;;;;;21.49;41.39;99534.31;4948305;28;20765;-75
2022/09/23 10:24:51;;;;;;;5.07;4.07;;;;;;;21.38;41.97;99536.31;4948247;28;20440;-75
2022/09/23 10:27:34;;;;;;;3.90;3.50;;;;;;;21.42;41.75;99534.16;4945337;28;20470;-76
2022/09/23 10:30:05;;;;;;;4.53;4.03;;;;;;;21.50;41.68;99525.31;4945913;28;20918;-76
2022/09/23 10:32:33;;;;;;;6.90;3.80;;;;;;;21.66;41.42;99519.94;4949520;28;21123;-75
2022/09/23 10:35:14;;;;;;;4.93;3.60;;;;;;;21.75;41.19;99521.56;4944021;28;23661;-76
2022/09/23 10:37:39;;;;;;;9.97;3.50;;;;;;;21.80;41.15;99513.03;4945878;28;20427;-76
2022/09/23 10:49:33;;;;;;;4.47;3.13;;;;;;;22.31;39.85;99500.97;4948029;28;20487;-76
2022/09/23 10:52:21;;;;;;;4.50;2.87;;;;;;;22.28;39.65;99498.63;4951548;28;20427;-76
2022/09/23 10:55:29;;;;;;;3.13;2.83;;;;;;;22.34;38.75;99502.44;4954249;28;20445;-76
2022/09/23 10:58:18;;;;;;;4.17;3.10;;;;;;;22.19;38.84;99496.16;4947007;28;20560;-76
2022/09/23 11:01:02;;;;;;;2.63;2.40;;;;;;;22.29;38.51;99494.94;4953534;28;20479;-77
2022/09/23 11:03:44;;;;;;;6.10;2.40;;;;;;;22.39;38.48;99493.91;4954932;28;21137;-76
2022/09/23 11:06:19;;;;;;;4.30;2.73;;;;;;;22.40;37.90;99490.19;4954723;28;20417;-76
2022/09/23 11:09:05;;;;;;;9.33;3.20;;;;;;;22.47;36.92;99493.84;4954713;28;20461;-76
2022/09/23 11:11:50;;;;;;;2.70;2.50;;;;;;;22.51;36.58;99495.16;4953465;28;20435;-76
2022/09/23 11:14:49;;;;;;;3.03;2.30;;;;;;;22.45;36.67;99488.66;4953823;28;20474;-76
2022/09/23 11:17:52;;;;;;;2.90;2.13;;;;;;;22.51;36.42;99481.75;4955642;28;20413;-76
2022/09/23 11:20:24;;;;;;;3.07;2.47;;;;;;;22.56;35.77;99476.72;4953396;28;21126;-76
2022/09/23 11:23:08;;;;;;;3.07;2.13;;;;;;;22.57;35.45;99469.50;4955736;28;20466;-76
2022/09/23 11:25:46;;;;;;;2.23;2.03;;;;;;;22.52;35.63;99465.53;4955495;28;20438;-76
2022/09/23 11:28:24;;;;;;;2.20;1.83;;;;;;;22.51;36.11;99463.03;4953867;28;20474;-76
2022/09/23 11:31:13;;;;;;;2.83;2.50;;;;;;;22.53;35.54;99459.16;4955700;28;20426;-76
2022/09/23 11:34:03;;;;;;;2.10;1.90;;;;;;;22.54;35.50;99451.97;4953521;28;20540;-76
2022/09/23 11:36:47;;;;;;;2.77;1.97;;;;;;;22.53;35.15;99453.81;4951842;28;20447;-76
2022/09/23 11:39:17;;;;;;;4.40;2.40;;;;;;;22.52;35.56;99453.97;4950027;28;20448;-76
2022/09/23 11:41:43;;;;;;;2.23;2.00;;;;;;;22.57;35.52;99448.91;4952349;28;20451;-76
2022/09/23 11:44:25;;;;;;;2.40;2.20;;;;;;;22.54;35.27;99451.97;4953924;28;20498;-76
2022/09/23 11:47:02;;;;;;;15.20;5.00;;;;;;;22.47;35.40;99448.34;4948358;28;20450;-75
2022/09/23 11:49:49;;;;;;;10.33;2.90;;;;;;;22.49;35.75;99443.63;4951379;28;20509;-76
2022/09/23 11:52:21;;;;;;;22.57;5.33;;;;;;;22.58;35.48;99452.44;4952436;28;20413;-76
2022/09/23 11:55:05;;;;;;;3.60;2.10;;;;;;;22.62;35.36;99449.22;4951282;28;20435;-76
2022/09/23 11:57:58;;;;;;;2.60;2.00;;;;;;;22.64;34.72;99439.16;4956978;28;20517;-76
2022/09/23 12:00:31;;;;;;;6.10;2.67;;;;;;;22.56;34.47;99436.56;4958482;28;20475;-76
2022/09/23 12:03:08;;;;;;;2.53;2.20;;;;;;;22.54;34.54;99433.22;4956713;28;20456;-76
2022/09/23 12:05:38;;;;;;;2.97;2.00;;;;;;;22.54;34.34;99435.91;4955863;28;20958;-76
2022/09/23 12:08:27;;;;;;;3.03;2.50;;;;;;;22.60;34.76;99429.84;4956314;28;20463;-76